Time;durP1;ratioP1;P1;durP2;ratioP2;P2;SDS_P1;SDS_P2;PMS_P1;PMS_P2;Temp;Humidity;BMP_temperature;BMP_pressure;BME280_temperature;BME280_humidity;BME280_pressure;Samples;Min_cycle;Max_cycle;Signal;HPM_P1;HPM_P2
2023/07/22 07:53:48;;;;;;;;;7.75;7.75;;;;;;;;5082918;27;13554;-74
2023/07/22 07:56:14;;;;;;;;;7.75;6.25;;;;;;;;5085352;28;8940;-70
2023/07/22 07:58:40;;;;;;;;;8.00;7.00;;;;;;;;5084614;28;8920;-81
2023/07/22 08:01:06;;;;;;;;;6.33;5.00;;;;;;;;5085303;28;8810;-71
2023/07/22 08:03:32;;;;;;;;;6.25;5.50;;;;;;;;5085183;28;8822;-74
2023/07/22 08:05:57;;;;;;;;;6.00;6.00;;;;;;;;5085670;28;10872;-79
2023/07/22 08:08:22;;;;;;;;;6.75;6.25;;;;;;;;5101252;28;8906;-77
2023/07/22 08:10:57;;;;;;;;;9.25;7.50;;;;;;;;5093329;28;8858;-76
2023/07/22 08:13:22;;;;;;;;;6.40;6.40;;;;;;;;5093393;28;8859;-77
2023/07/22 08:15:47;;;;;;;;;8.50;5.50;;;;;;;;5095731;28;8819;-76
2023/07/22 08:18:13;;;;;;;;;7.00;7.00;;;;;;;;5095188;28;8816;-77
2023/07/22 08:20:38;;;;;;;;;7.25;6.25;;;;;;;;5094214;28;8829;-78
2023/07/22 08:23:03;;;;;;;;;7.00;6.75;;;;;;;;5093615;28;8908;-77
2023/07/22 08:25:28;;;;;;;;;7.50;6.75;;;;;;;;5084623;28;8810;-76
2023/07/22 08:27:54;;;;;;;;;6.50;6.25;;;;;;;;5086159;28;8805;-80
2023/07/22 08:30:19;;;;;;;;;8.00;7.00;;;;;;;;5085589;28;8782;-78
2023/07/22 08:32:44;;;;;;;;;9.00;6.00;;;;;;;;5086215;28;9521;-77
2023/07/22 08:35:09;;;;;;;;;7.00;7.00;;;;;;;;5086151;28;8806;-79
2023/07/22 08:37:35;;;;;;;;;7.75;7.75;;;;;;;;5100316;28;8813;-80
2023/07/22 08:40:00;;;;;;;;;10.75;7.75;;;;;;;;5105272;28;8811;-76
2023/07/22 08:42:27;;;;;;;;;11.00;7.50;;;;;;;;5106567;28;9530;-75
2023/07/22 08:44:56;;;;;;;;;8.40;7.40;;;;;;;;5106481;28;9617;-78
2023/07/22 08:47:22;;;;;;;;;6.20;6.20;;;;;;;;5106613;28;8910;-80
2023/07/22 08:49:50;;;;;;;;;8.00;7.20;;;;;;;;5096059;28;8968;-82
2023/07/22 08:52:17;;;;;;;;;8.60;7.40;;;;;;;;5073466;28;8856;-78
2023/07/22 08:54:42;;;;;;;;;6.40;6.40;;;;;;;;5064749;28;8933;-81
2023/07/22 08:57:09;;;;;;;;;8.00;6.50;;;;;;;;5065597;28;9547;-80
2023/07/22 08:59:34;;;;;;;;;5.00;5.00;;;;;;;;5064312;28;9535;-81
2023/07/22 09:02:00;;;;;;;;;6.00;6.00;;;;;;;;5065654;28;8817;-80
2023/07/22 09:04:26;;;;;;;;;7.00;7.00;;;;;;;;5056139;28;8840;-80
2023/07/22 09:06:52;;;;;;;;;6.25;6.25;;;;;;;;5082462;28;8818;-77
2023/07/22 09:09:17;;;;;;;;;7.20;6.20;;;;;;;;5082066;28;8935;-78
2023/07/22 09:11:45;;;;;;;;;8.00;8.00;;;;;;;;5082604;28;8957;-78
2023/07/22 09:14:11;;;;;;;;;7.00;7.00;;;;;;;;5080913;28;9549;-78
2023/07/22 09:16:36;;;;;;;;;7.25;7.00;;;;;;;;5082497;28;8803;-80
2023/07/22 09:19:03;;;;;;;;;9.50;8.00;;;;;;;;5081709;28;8779;-79
2023/07/22 09:21:28;;;;;;;;;7.60;7.60;;;;;;;;5082892;28;8905;-80
2023/07/22 09:23:53;;;;;;;;;5.00;5.00;;;;;;;;5080777;28;8828;-80
2023/07/22 09:26:18;;;;;;;;;7.00;6.50;;;;;;;;5081536;28;8775;-80
2023/07/22 09:28:48;;;;;;;;;7.00;7.00;;;;;;;;5081770;28;8841;-80
2023/07/22 09:31:13;;;;;;;;;6.20;5.40;;;;;;;;5077767;28;8794;-80
2023/07/22 09:33:38;;;;;;;;;6.00;6.00;;;;;;;;5081746;28;8860;-79
2023/07/22 09:36:04;;;;;;;;;8.00;8.00;;;;;;;;5084938;28;8819;-81
2023/07/22 09:38:29;;;;;;;;;7.75;7.50;;;;;;;;5092049;28;8885;-73
2023/07/22 09:40:54;;;;;;;;;9.00;9.00;;;;;;;;5091856;28;8784;-77
2023/07/22 09:43:22;;;;;;;;;7.50;7.00;;;;;;;;5083728;28;8885;-76
2023/07/22 09:45:48;;;;;;;;;9.60;8.00;;;;;;;;5079964;28;8876;-78
2023/07/22 09:48:13;;;;;;;;;8.00;8.00;;;;;;;;5079954;28;8816;-78
2023/07/22 09:50:39;;;;;;;;;8.50;7.50;;;;;;;;5077158;28;8826;-77
2023/07/22 09:53:04;;;;;;;;;5.00;5.00;;;;;;;;5080943;28;9468;-78
2023/07/22 09:55:30;;;;;;;;;11.25;9.75;;;;;;;;5079449;28;8885;-78
2023/07/22 09:57:56;;;;;;;;;9.80;8.80;;;;;;;;5077748;28;8851;-77
2023/07/22 10:00:23;;;;;;;;;9.00;7.75;;;;;;;;5084367;28;8803;-81
2023/07/22 10:02:51;;;;;;;;;10.00;8.00;;;;;;;;5071160;28;9042;-74
2023/07/22 10:05:18;;;;;;;;;9.40;8.20;;;;;;;;5069616;28;8814;-79
2023/07/22 10:07:45;;;;;;;;;6.40;6.40;;;;;;;;5072343;28;8836;-72
2023/07/22 10:10:11;;;;;;;;;8.80;8.00;;;;;;;;5076242;28;8842;-74
2023/07/22 10:12:36;;;;;;;;;6.50;6.00;;;;;;;;5080434;28;9572;-74
2023/07/22 10:15:02;;;;;;;;;8.50;8.50;;;;;;;;5078112;28;8791;-73
2023/07/22 10:17:29;;;;;;;;;8.00;8.00;;;;;;;;5078708;28;8865;-75
2023/07/22 10:19:55;;;;;;;;;10.80;8.00;;;;;;;;5079120;28;8830;-75
2023/07/22 10:22:20;;;;;;;;;7.75;7.00;;;;;;;;5080733;28;8838;-74
2023/07/22 10:24:47;;;;;;;;;7.00;6.25;;;;;;;;5084501;28;8799;-73
2023/07/22 10:27:13;;;;;;;;;9.40;9.20;;;;;;;;5077812;28;8778;-75
2023/07/22 10:29:39;;;;;;;;;10.00;10.00;;;;;;;;5079159;28;8897;-74
2023/07/22 10:32:05;;;;;;;;;39.67;33.67;;;;;;;;5073452;28;8838;-74
2023/07/22 10:34:30;;;;;;;;;16.00;16.00;;;;;;;;5068972;28;8794;-74
2023/07/22 10:36:58;;;;;;;;;14.00;12.00;;;;;;;;5067763;28;9532;-77
2023/07/22 10:39:27;;;;;;;;;10.00;10.00;;;;;;;;5068624;28;8799;-75
2023/07/22 10:42:05;;;;;;;;;9.40;9.40;;;;;;;;5068680;28;8802;-76
2023/07/22 10:44:31;;;;;;;;;13.25;13.25;;;;;;;;5068904;28;8807;-75
2023/07/22 10:46:57;;;;;;;;;14.00;13.00;;;;;;;;5070023;28;8824;-74
2023/07/22 10:49:23;;;;;;;;;11.50;10.25;;;;;;;;5069968;28;8807;-72
2023/07/22 10:51:49;;;;;;;;;9.25;9.25;;;;;;;;5068657;28;8861;-80
2023/07/22 10:54:15;;;;;;;;;9.20;9.20;;;;;;;;5070634;28;8829;-81
2023/07/22 10:56:44;;;;;;;;;10.00;9.00;;;;;;;;5070030;28;8791;-78
2023/07/22 10:59:12;;;;;;;;;8.40;8.40;;;;;;;;5070069;28;8998;-76
2023/07/22 11:01:38;;;;;;;;;9.40;7.60;;;;;;;;5068624;28;8795;-76
2023/07/22 11:04:03;;;;;;;;;8.80;8.00;;;;;;;;5069793;28;8865;-76
2023/07/22 11:06:29;;;;;;;;;7.25;6.50;;;;;;;;5069453;28;8794;-76
2023/07/22 11:08:55;;;;;;;;;8.00;8.00;;;;;;;;5063272;28;9768;-80
2023/07/22 11:11:20;;;;;;;;;7.80;7.40;;;;;;;;5057863;28;8896;-79
2023/07/22 11:13:46;;;;;;;;;7.33;7.33;;;;;;;;5049838;28;8821;-80
2023/07/22 11:16:11;;;;;;;;;7.00;7.00;;;;;;;;5056085;28;8957;-78
2023/07/22 11:18:40;;;;;;;;;9.33;7.00;;;;;;;;5068433;28;8829;-79
2023/07/22 11:21:09;;;;;;;;;6.60;6.60;;;;;;;;5077052;28;8851;-77
2023/07/22 11:23:35;;;;;;;;;8.75;6.50;;;;;;;;5089627;28;8830;-81
2023/07/22 11:26:01;;;;;;;;;8.00;8.00;;;;;;;;5079267;28;8838;-74
2023/07/22 11:28:27;;;;;;;;;8.75;6.50;;;;;;;;5067900;28;8826;-73
2023/07/22 11:30:53;;;;;;;;;7.80;7.80;;;;;;;;5068440;28;11607;-73
2023/07/22 11:33:18;;;;;;;;;8.60;7.20;;;;;;;;5068121;28;8835;-75
2023/07/22 11:35:44;;;;;;;;;5.00;3.67;;;;;;;;5068309;28;8787;-78
2023/07/22 11:38:11;;;;;;;;;11.25;8.50;;;;;;;;5067241;28;9395;-79
2023/07/22 11:40:36;;;;;;;;;7.40;7.40;;;;;;;;5067195;28;8833;-77
2023/07/22 11:43:02;;;;;;;;;9.25;8.25;;;;;;;;5069333;28;8886;-70
2023/07/22 11:45:27;;;;;;;;;11.33;10.00;;;;;;;;5075885;28;8807;-72
2023/07/22 11:47:52;;;;;;;;;7.00;7.00;;;;;;;;5076793;28;9056;-71
2023/07/22 11:50:18;;;;;;;;;10.67;8.67;;;;;;;;5077887;28;8831;-71
2023/07/22 11:52:49;;;;;;;;;8.00;7.00;;;;;;;;5077011;28;8899;-75
2023/07/22 11:55:15;;;;;;;;;7.75;7.00;;;;;;;;5075862;28;8803;-76
2023/07/22 11:57:41;;;;;;;;;8.50;8.50;;;;;;;;5078764;28;8810;-76
2023/07/22 12:00:08;;;;;;;;;10.25;8.75;;;;;;;;5077566;28;9684;-70
2023/07/22 12:02:35;;;;;;;;;9.50;7.50;;;;;;;;5076926;28;8807;-71
2023/07/22 12:05:02;;;;;;;;;8.75;8.75;;;;;;;;5083036;28;8842;-71
2023/07/22 12:07:28;;;;;;;;;12.00;11.50;;;;;;;;5073647;28;8855;-71
2023/07/22 12:09:54;;;;;;;;;11.00;10.00;;;;;;;;5076230;28;8810;-73
2023/07/22 12:12:19;;;;;;;;;10.50;10.50;;;;;;;;5076666;28;8853;-73
2023/07/22 12:14:45;;;;;;;;;8.33;8.00;;;;;;;;5078436;28;9357;-71
2023/07/22 12:17:10;;;;;;;;;13.67;12.00;;;;;;;;5078021;28;8783;-72
2023/07/22 12:19:35;;;;;;;;;11.67;10.00;;;;;;;;5079239;28;8901;-69
2023/07/22 12:22:01;;;;;;;;;8.67;8.67;;;;;;;;5069021;28;8891;-69
2023/07/22 12:24:27;;;;;;;;;10.00;8.75;;;;;;;;5067758;28;8845;-69
2023/07/22 12:26:52;;;;;;;;;7.00;6.00;;;;;;;;5065107;28;8814;-69
2023/07/22 12:29:18;;;;;;;;;12.33;12.33;;;;;;;;5067039;28;8915;-70
2023/07/22 12:31:43;;;;;;;;;8.67;8.00;;;;;;;;5069035;28;8881;-68
2023/07/22 12:34:08;;;;;;;;;8.00;7.33;;;;;;;;5070751;28;8799;-73
2023/07/22 12:36:34;;;;;;;;;10.00;9.00;;;;;;;;4979609;28;10926;-70
2023/07/22 12:38:59;;;;;;;;;8.67;8.33;;;;;;;;5004919;28;8804;-71
2023/07/22 12:41:24;;;;;;;;;7.00;6.33;;;;;;;;4991455;28;8927;-71
2023/07/22 12:43:50;;;;;;;;;9.00;7.00;;;;;;;;4991288;28;8890;-71
2023/07/22 12:46:15;;;;;;;;;7.67;7.67;;;;;;;;4991461;28;8821;-68
2023/07/22 12:48:40;;;;;;;;;11.33;9.67;;;;;;;;5003677;28;8818;-70
2023/07/22 12:51:05;;;;;;;;;9.33;9.00;;;;;;;;5006117;28;8798;-73
2023/07/22 12:53:31;;;;;;;;;11.33;7.33;;;;;;;;4997559;28;9642;-71
2023/07/22 12:55:56;;;;;;;;;9.67;8.00;;;;;;;;4992859;28;8796;-75
2023/07/22 12:58:21;;;;;;;;;7.33;7.33;;;;;;;;5013692;28;8818;-76
2023/07/22 13:00:46;;;;;;;;;9.00;9.00;;;;;;;;5010881;28;8928;-73
2023/07/22 13:03:12;;;;;;;;;10.67;9.67;;;;;;;;5010818;28;8814;-72
2023/07/22 13:05:37;;;;;;;;;11.00;8.00;;;;;;;;5011090;28;8826;-75
2023/07/22 13:08:02;;;;;;;;;6.67;6.33;;;;;;;;5010956;28;8818;-74
2023/07/22 13:10:29;;;;;;;;;10.33;9.00;;;;;;;;5010677;28;9529;-73
2023/07/22 13:12:54;;;;;;;;;10.75;10.50;;;;;;;;5010476;28;8822;-72
2023/07/22 13:15:19;;;;;;;;;9.00;8.00;;;;;;;;5009246;28;8988;-72
2023/07/22 13:17:45;;;;;;;;;10.00;10.00;;;;;;;;5010618;28;8810;-72
2023/07/22 13:20:11;;;;;;;;;11.00;9.67;;;;;;;;5010699;28;9701;-74
2023/07/22 13:22:36;;;;;;;;;8.25;6.50;;;;;;;;5009611;28;8818;-72
2023/07/22 13:25:03;;;;;;;;;9.00;8.00;;;;;;;;5010822;28;8861;-71
2023/07/22 13:27:28;;;;;;;;;9.75;7.50;;;;;;;;5012174;28;9628;-74
2023/07/22 13:29:53;;;;;;;;;10.67;10.33;;;;;;;;5010043;28;8802;-73
2023/07/22 13:32:18;;;;;;;;;11.33;11.33;;;;;;;;5011931;28;8810;-72
2023/07/22 13:34:44;;;;;;;;;9.00;8.67;;;;;;;;5011796;28;8814;-71
2023/07/22 13:37:09;;;;;;;;;9.00;8.00;;;;;;;;5012251;28;8864;-74
2023/07/22 13:39:34;;;;;;;;;8.67;7.67;;;;;;;;5012146;28;9548;-73
2023/07/22 13:41:59;;;;;;;;;12.00;10.67;;;;;;;;5013131;28;8798;-77
2023/07/22 13:44:25;;;;;;;;;10.00;9.33;;;;;;;;5010572;28;8821;-77
2023/07/22 13:46:50;;;;;;;;;11.67;11.67;;;;;;;;5010273;28;9583;-77
2023/07/22 13:49:15;;;;;;;;;11.67;11.00;;;;;;;;5010337;28;8826;-78
2023/07/22 13:51:41;;;;;;;;;6.33;6.33;;;;;;;;5009481;28;8901;-76
2023/07/22 13:54:06;;;;;;;;;8.67;8.00;;;;;;;;5011927;28;8774;-74
2023/07/22 13:56:31;;;;;;;;;13.67;10.00;;;;;;;;5011750;28;8888;-67
2023/07/22 13:58:58;;;;;;;;;10.33;9.67;;;;;;;;5011745;28;9564;-67
2023/07/22 14:01:23;;;;;;;;;7.75;7.75;;;;;;;;5011054;28;8809;-66
2023/07/22 14:03:49;;;;;;;;;9.00;7.00;;;;;;;;5011272;28;8888;-66
2023/07/22 14:06:14;;;;;;;;;11.33;8.33;;;;;;;;5011399;28;8823;-67
2023/07/22 14:08:39;;;;;;;;;12.33;9.00;;;;;;;;5014302;28;8800;-66
2023/07/22 14:11:04;;;;;;;;;12.00;12.00;;;;;;;;5021695;28;8829;-66
2023/07/22 14:13:30;;;;;;;;;12.67;12.00;;;;;;;;5019130;28;8846;-66
2023/07/22 14:15:55;;;;;;;;;9.00;9.00;;;;;;;;5018813;28;8798;-66
2023/07/22 14:18:20;;;;;;;;;5.33;4.00;;;;;;;;5012123;28;8828;-67
2023/07/22 14:20:45;;;;;;;;;12.67;10.67;;;;;;;;5018966;28;8835;-66
2023/07/22 14:23:11;;;;;;;;;9.33;9.33;;;;;;;;5020892;28;8796;-66
2023/07/22 14:25:36;;;;;;;;;10.33;9.67;;;;;;;;5018737;28;8802;-62
2023/07/22 14:28:02;;;;;;;;;10.00;10.00;;;;;;;;5019484;28;8831;-63
2023/07/22 14:30:27;;;;;;;;;8.00;8.00;;;;;;;;5019961;28;8794;-63
2023/07/22 14:32:52;;;;;;;;;11.67;10.67;;;;;;;;5017818;28;8818;-63
2023/07/22 14:35:18;;;;;;;;;9.00;9.00;;;;;;;;5018008;28;8855;-63
2023/07/22 14:37:43;;;;;;;;;13.00;11.00;;;;;;;;5017681;28;8897;-63
2023/07/22 14:40:08;;;;;;;;;10.33;10.33;;;;;;;;5016927;28;9538;-62
2023/07/22 14:42:34;;;;;;;;;8.00;8.00;;;;;;;;5020138;28;8824;-62
2023/07/22 14:44:59;;;;;;;;;7.00;5.33;;;;;;;;5018687;28;8798;-62
2023/07/22 14:47:25;;;;;;;;;8.33;8.33;;;;;;;;5019230;28;8849;-63
2023/07/22 14:49:51;;;;;;;;;8.75;7.25;;;;;;;;5017959;28;8799;-63
2023/07/22 14:52:16;;;;;;;;;10.00;10.00;;;;;;;;5019638;28;8819;-64
2023/07/22 14:54:41;;;;;;;;;9.67;8.67;;;;;;;;5018900;28;8833;-63
